Time;durP1;ratioP1;P1;durP2;ratioP2;P2;SDS_P1;SDS_P2;PMS_P1;PMS_P2;Temp;Humidity;BMP_temperature;BMP_pressure;BME280_temperature;BME280_humidity;BME280_pressure;Samples;Min_cycle;Max_cycle;Signal;HPM_P1;HPM_P2
2022/08/20 00:01:55;;;;;;;4.15;2.58;;;19.80;99.90;;;;;;4392271;32;19997;-70
2022/08/20 00:04:23;;;;;;;2.55;2.15;;;19.80;99.90;;;;;;4390540;32;19977;-69
2022/08/20 00:06:49;;;;;;;3.50;2.12;;;19.80;99.90;;;;;;4398220;32;19956;-69
2022/08/20 00:09:18;;;;;;;3.78;2.15;;;19.70;99.90;;;;;;4405134;32;19993;-70
2022/08/20 00:11:45;;;;;;;3.53;1.80;;;19.70;99.90;;;;;;4401053;32;20105;-69
2022/08/20 00:14:12;;;;;;;3.80;2.30;;;19.70;99.90;;;;;;4396424;32;19970;-70
2022/08/20 00:16:39;;;;;;;6.07;2.08;;;19.70;99.90;;;;;;4397076;32;19994;-69
2022/08/20 00:19:07;;;;;;;3.25;1.90;;;19.80;99.90;;;;;;4393203;32;20080;-70
2022/08/20 00:21:35;;;;;;;3.05;2.20;;;19.80;99.90;;;;;;4398040;32;19986;-69
2022/08/20 00:24:04;;;;;;;2.00;1.77;;;19.80;99.90;;;;;;4402089;32;19959;-69
2022/08/20 00:26:32;;;;;;;2.70;1.85;;;19.90;99.90;;;;;;4404077;32;19999;-69
2022/08/20 00:28:58;;;;;;;4.37;2.30;;;19.80;99.90;;;;;;4391966;32;20074;-69
2022/08/20 00:31:25;;;;;;;2.83;2.15;;;19.80;99.90;;;;;;4397786;32;19988;-69
2022/08/20 00:33:52;;;;;;;2.45;2.00;;;19.80;99.90;;;;;;4396423;32;19961;-70
2022/08/20 00:36:21;;;;;;;3.37;2.00;;;19.80;99.90;;;;;;4396775;32;19991;-70
2022/08/20 00:38:48;;;;;;;4.78;2.10;;;19.80;99.90;;;;;;4401851;32;20003;-70
2022/08/20 00:41:18;;;;;;;4.32;2.25;;;19.80;99.90;;;;;;4401557;32;19959;-70
2022/08/20 00:43:49;;;;;;;5.85;1.92;;;19.90;99.90;;;;;;4399117;32;19961;-69
2022/08/20 00:46:19;;;;;;;4.37;2.28;;;19.90;99.90;;;;;;4390864;32;19974;-70
2022/08/20 00:48:49;;;;;;;3.42;2.30;;;20.00;99.90;;;;;;4387009;32;19993;-69
2022/08/20 00:51:26;;;;;;;3.62;2.50;;;20.00;99.90;;;;;;4389835;32;20084;-70
2022/08/20 00:53:53;;;;;;;3.25;2.60;;;20.10;99.90;;;;;;4398296;32;20023;-70
2022/08/20 00:56:20;;;;;;;3.67;2.72;;;20.20;99.90;;;;;;4389989;32;20129;-70
2022/08/20 00:58:50;;;;;;;3.22;2.33;;;20.20;99.90;;;;;;4399516;32;20081;-71
2022/08/20 01:01:18;;;;;;;6.20;2.70;;;20.40;99.90;;;;;;4401139;32;20021;-70
2022/08/20 01:03:45;;;;;;;4.03;2.47;;;20.40;99.90;;;;;;4403196;32;19966;-70
2022/08/20 01:06:12;;;;;;;4.55;2.58;;;20.50;99.90;;;;;;4400369;32;19984;-70
2022/08/20 01:08:41;;;;;;;3.45;2.35;;;20.50;99.90;;;;;;4397772;32;20028;-70
2022/08/20 01:11:11;;;;;;;2.58;2.22;;;20.50;99.90;;;;;;4396582;32;20139;-70
2022/08/20 01:13:40;;;;;;;10.98;3.40;;;20.60;99.90;;;;;;4394705;32;19956;-70
2022/08/20 01:16:14;;;;;;;4.90;2.42;;;20.60;99.90;;;;;;4390735;32;19980;-70
2022/08/20 01:18:41;;;;;;;4.20;2.58;;;20.60;99.90;;;;;;4392460;32;19997;-70
2022/08/20 01:21:08;;;;;;;4.03;2.55;;;20.60;99.90;;;;;;4392283;32;19957;-70
2022/08/20 01:23:42;;;;;;;3.75;2.85;;;20.60;99.90;;;;;;4390742;32;19974;-70
2022/08/20 01:26:15;;;;;;;5.25;2.97;;;20.60;99.90;;;;;;4392066;32;20003;-70
2022/08/20 01:28:45;;;;;;;3.22;2.70;;;20.60;99.90;;;;;;4395851;32;20011;-70
2022/08/20 01:31:15;;;;;;;3.37;2.65;;;20.60;99.90;;;;;;4404554;32;19991;-71
2022/08/20 01:33:43;;;;;;;4.22;3.22;;;20.60;99.90;;;;;;4397381;32;20037;-69
2022/08/20 01:36:11;;;;;;;4.45;3.20;;;20.60;99.90;;;;;;4404420;32;19991;-70
2022/08/20 01:38:42;;;;;;;4.72;3.10;;;20.60;99.90;;;;;;4397615;32;19996;-70
2022/08/20 01:41:36;;;;;;;4.57;2.70;;;20.60;99.90;;;;;;4398690;32;20111;-70
2022/08/20 01:44:03;;;;;;;6.00;3.10;;;20.60;99.90;;;;;;4397672;32;19976;-70
2022/08/20 01:46:32;;;;;;;3.97;3.05;;;20.60;99.90;;;;;;4404100;32;19976;-70
2022/08/20 01:49:06;;;;;;;3.95;3.05;;;20.60;99.90;;;;;;4405352;32;19988;-70
2022/08/20 01:51:33;;;;;;;3.83;2.97;;;20.60;99.90;;;;;;4399913;32;20018;-71
2022/08/20 01:53:59;;;;;;;6.22;3.30;;;20.60;99.90;;;;;;4396471;32;20003;-71
2022/08/20 01:56:28;;;;;;;5.50;3.47;;;20.60;99.90;;;;;;4402007;32;20078;-71
2022/08/20 01:58:59;;;;;;;4.90;3.20;;;20.50;99.90;;;;;;4386886;32;20034;-71
2022/08/20 02:01:31;;;;;;;3.65;3.08;;;20.60;99.90;;;;;;4392206;32;19999;-70
2022/08/20 02:04:00;;;;;;;5.50;3.03;;;20.60;99.90;;;;;;4399768;32;19991;-70
2022/08/20 02:06:30;;;;;;;5.78;3.70;;;20.50;99.90;;;;;;4393407;32;19954;-70
2022/08/20 02:09:00;;;;;;;5.65;3.37;;;20.50;99.90;;;;;;4396329;32;19995;-69
2022/08/20 02:11:28;;;;;;;5.70;3.55;;;20.60;99.90;;;;;;4395413;32;19991;-69
2022/08/20 02:13:57;;;;;;;5.22;3.75;;;20.40;99.90;;;;;;4390973;32;20163;-70
2022/08/20 02:16:29;;;;;;;6.87;4.10;;;20.40;99.90;;;;;;4395802;32;20139;-70
2022/08/20 02:19:00;;;;;;;5.40;3.70;;;20.40;99.90;;;;;;4395408;32;19988;-70
2022/08/20 02:21:31;;;;;;;5.28;3.65;;;20.50;99.90;;;;;;4390428;32;19962;-70
2022/08/20 02:23:59;;;;;;;5.70;3.62;;;20.50;99.90;;;;;;4393553;32;19969;-70
2022/08/20 02:26:26;;;;;;;5.97;3.90;;;20.50;99.90;;;;;;4398746;32;20021;-70
2022/08/20 02:28:54;;;;;;;6.37;3.50;;;20.50;99.90;;;;;;4398733;32;20130;-70
2022/08/20 02:31:23;;;;;;;4.55;3.08;;;20.50;99.90;;;;;;4405018;32;19959;-70
2022/08/20 02:33:50;;;;;;;3.92;3.33;;;20.50;99.90;;;;;;4403220;32;19957;-70
2022/08/20 02:36:19;;;;;;;5.25;3.35;;;20.50;99.90;;;;;;4406768;32;20002;-70
2022/08/20 02:38:46;;;;;;;7.30;3.50;;;20.50;99.90;;;;;;4402514;32;19964;-70
2022/08/20 02:41:14;;;;;;;4.70;3.70;;;20.50;99.90;;;;;;4398241;32;20011;-70
2022/08/20 02:43:41;;;;;;;5.57;3.60;;;20.50;99.90;;;;;;4398116;32;19996;-70
2022/08/20 02:46:08;;;;;;;5.20;4.00;;;20.50;99.90;;;;;;4405678;32;19977;-70
2022/08/20 02:48:36;;;;;;;5.32;3.80;;;20.50;99.90;;;;;;4400450;32;20135;-70
2022/08/20 02:51:06;;;;;;;4.93;3.72;;;20.50;99.90;;;;;;4400804;32;20011;-70
2022/08/20 02:53:35;;;;;;;4.72;3.67;;;20.40;99.90;;;;;;4399007;32;20004;-71
2022/08/20 02:56:01;;;;;;;5.57;3.83;;;20.40;99.90;;;;;;4399635;32;19992;-70
2022/08/20 02:58:28;;;;;;;4.12;3.37;;;20.40;99.90;;;;;;4399753;32;20069;-70
2022/08/20 03:00:55;;;;;;;4.12;3.60;;;20.30;99.90;;;;;;4402885;32;19964;-70
2022/08/20 03:03:23;;;;;;;6.18;3.83;;;20.30;99.90;;;;;;4403627;32;20042;-70
2022/08/20 03:05:54;;;;;;;6.87;3.60;;;20.30;99.90;;;;;;4398425;32;20058;-70
2022/08/20 03:08:21;;;;;;;5.55;3.75;;;20.30;99.90;;;;;;4397158;32;20023;-70
2022/08/20 03:10:49;;;;;;;4.37;3.30;;;20.30;99.90;;;;;;4405083;32;19959;-69
2022/08/20 03:13:18;;;;;;;5.57;3.47;;;20.30;99.90;;;;;;4384246;32;19966;-69
2022/08/20 03:15:48;;;;;;;4.43;3.60;;;20.30;99.90;;;;;;4392080;32;19993;-70
2022/08/20 03:18:16;;;;;;;9.05;3.87;;;20.30;99.90;;;;;;4394834;32;19966;-70
2022/08/20 03:20:44;;;;;;;4.87;4.00;;;20.20;99.90;;;;;;4394618;32;20057;-70
2022/08/20 03:23:12;;;;;;;6.50;3.70;;;20.20;99.90;;;;;;4398118;32;19957;-70
2022/08/20 03:25:39;;;;;;;4.65;3.50;;;20.10;99.90;;;;;;4391576;32;20039;-70
2022/08/20 03:28:06;;;;;;;5.28;3.70;;;20.10;99.90;;;;;;4394066;32;20132;-70
2022/08/20 03:30:33;;;;;;;6.10;3.87;;;20.20;99.90;;;;;;4400196;32;19963;-70
2022/08/20 03:33:00;;;;;;;6.37;4.20;;;20.10;99.90;;;;;;4401623;32;20000;-70
2022/08/20 03:35:30;;;;;;;4.18;3.60;;;20.10;99.90;;;;;;4401349;32;20002;-70
2022/08/20 03:37:57;;;;;;;5.55;3.80;;;20.10;99.90;;;;;;4388234;32;20019;-69
2022/08/20 03:40:28;;;;;;;6.07;3.83;;;20.20;99.90;;;;;;4399324;32;20009;-70
2022/08/20 03:42:55;;;;;;;5.72;3.60;;;20.20;99.90;;;;;;4388615;32;19991;-70
2022/08/20 03:45:23;;;;;;;5.60;3.83;;;20.10;99.90;;;;;;4405682;32;19992;-70
2022/08/20 03:47:52;;;;;;;5.12;3.90;;;20.00;99.90;;;;;;4393801;32;19958;-69
2022/08/20 03:50:20;;;;;;;5.25;3.97;;;20.00;99.90;;;;;;4394973;32;19958;-70
2022/08/20 03:52:47;;;;;;;5.30;3.92;;;20.10;99.90;;;;;;4392284;32;19966;-70
2022/08/20 03:55:14;;;;;;;6.72;3.83;;;20.00;99.90;;;;;;4399933;32;20009;-69
2022/08/20 03:57:47;;;;;;;4.70;3.70;;;20.10;99.90;;;;;;4398527;32;19966;-69
2022/08/20 04:00:18;;;;;;;5.85;3.90;;;20.20;99.90;;;;;;4393101;32;20008;-70
2022/08/20 04:02:45;;;;;;;5.57;3.87;;;20.10;99.90;;;;;;4394863;32;19964;-70
2022/08/20 04:05:12;;;;;;;6.95;4.40;;;20.10;99.90;;;;;;4394332;32;20022;-70
2022/08/20 04:07:39;;;;;;;5.05;4.00;;;20.00;99.90;;;;;;4399685;32;19993;-69
2022/08/20 04:10:09;;;;;;;5.72;4.25;;;19.90;99.90;;;;;;4385386;32;19966;-70
2022/08/20 04:12:39;;;;;;;6.82;4.53;;;19.80;99.90;;;;;;4396610;32;20024;-70
2022/08/20 04:15:09;;;;;;;6.85;4.43;;;19.90;99.90;;;;;;4405466;32;19970;-70
2022/08/20 04:17:38;;;;;;;7.72;4.62;;;19.80;99.90;;;;;;4395697;32;19961;-70
2022/08/20 04:20:06;;;;;;;6.55;4.28;;;19.80;99.90;;;;;;4399541;32;19991;-70
2022/08/20 04:22:33;;;;;;;6.28;4.20;;;19.70;99.90;;;;;;4401289;32;20009;-69
2022/08/20 04:24:59;;;;;;;6.00;4.40;;;19.70;99.90;;;;;;4396409;32;20018;-69
2022/08/20 04:27:26;;;;;;;5.37;4.12;;;19.70;99.90;;;;;;4391002;32;20010;-70
2022/08/20 04:29:53;;;;;;;7.03;4.12;;;19.80;99.90;;;;;;4390837;32;19988;-70
2022/08/20 04:32:21;;;;;;;5.97;4.37;;;19.80;99.90;;;;;;4399399;32;19974;-69
2022/08/20 04:34:50;;;;;;;5.68;4.32;;;19.80;99.90;;;;;;4400125;32;19989;-69
2022/08/20 04:37:20;;;;;;;8.43;4.40;;;19.80;99.90;;;;;;4394334;32;19964;-69
2022/08/20 04:40:52;;;;;;;5.65;4.10;;;19.80;99.90;;;;;;4383763;32;19971;-70
2022/08/20 04:42:35;;;;;;;7.45;4.22;;;19.80;99.90;;;;;;4390278;32;19956;-71
2022/08/20 04:45:01;;;;;;;6.22;4.57;;;19.90;99.90;;;;;;4400151;32;20142;-69
2022/08/20 04:47:29;;;;;;;5.82;4.30;;;19.80;99.90;;;;;;4390087;32;19992;-70
2022/08/20 04:49:59;;;;;;;5.50;4.00;;;19.90;99.90;;;;;;4401895;32;20070;-69
2022/08/20 04:52:25;;;;;;;5.80;4.55;;;19.90;99.90;;;;;;4399381;32;19957;-70
2022/08/20 04:54:54;;;;;;;5.90;4.47;;;19.90;99.90;;;;;;4389814;32;20015;-70
2022/08/20 04:57:22;;;;;;;5.28;4.22;;;20.00;99.90;;;;;;4399750;32;19975;-70
2022/08/20 04:59:50;;;;;;;5.28;3.90;;;20.00;99.90;;;;;;4403500;32;19985;-70
2022/08/20 05:02:17;;;;;;;6.80;4.60;;;20.00;99.90;;;;;;4404784;32;19961;-69
2022/08/20 05:04:46;;;;;;;7.22;4.70;;;20.00;99.90;;;;;;4400654;32;19978;-70
2022/08/20 05:07:13;;;;;;;8.38;5.07;;;20.00;99.90;;;;;;4397925;32;20042;-70
2022/08/20 05:09:40;;;;;;;6.22;4.47;;;20.00;99.90;;;;;;4389781;32;19996;-69
2022/08/20 05:12:07;;;;;;;6.00;4.60;;;20.10;99.90;;;;;;4402219;32;20090;-69
2022/08/20 05:14:34;;;;;;;6.90;4.40;;;20.10;99.90;;;;;;4389615;32;20022;-69
2022/08/20 05:17:04;;;;;;;6.72;4.60;;;20.20;99.90;;;;;;4392212;32;20020;-69
2022/08/20 05:19:31;;;;;;;5.90;4.78;;;20.20;99.90;;;;;;4396546;32;19975;-69
2022/08/20 05:22:00;;;;;;;7.87;4.00;;;20.20;99.90;;;;;;4392696;32;19999;-69
2022/08/20 05:24:27;;;;;;;6.72;4.85;;;20.30;99.90;;;;;;4397419;32;19959;-69
2022/08/20 05:26:54;;;;;;;7.25;4.72;;;20.30;99.90;;;;;;4399015;32;19996;-69
2022/08/20 05:29:22;;;;;;;6.07;4.57;;;20.30;99.90;;;;;;4406389;32;19991;-69
2022/08/20 05:31:48;;;;;;;5.45;4.43;;;20.40;99.90;;;;;;4383274;32;19959;-69
2022/08/20 05:34:15;;;;;;;7.40;4.47;;;20.50;99.90;;;;;;4396866;32;19997;-69
2022/08/20 05:36:45;;;;;;;6.70;4.57;;;20.50;99.90;;;;;;4397577;32;20003;-70
2022/08/20 05:39:14;;;;;;;6.03;4.30;;;20.60;99.90;;;;;;4391130;32;19966;-70
2022/08/20 05:41:41;;;;;;;6.95;4.80;;;20.60;99.90;;;;;;4406613;32;19989;-70
2022/08/20 05:44:12;;;;;;;7.57;4.35;;;20.70;99.90;;;;;;4393299;32;20135;-69
2022/08/20 05:46:39;;;;;;;6.45;4.28;;;20.80;99.90;;;;;;4383030;32;20027;-70
2022/08/20 05:49:06;;;;;;;6.55;4.85;;;20.90;99.90;;;;;;4401415;32;20019;-69
2022/08/20 05:51:35;;;;;;;6.30;4.82;;;21.10;99.90;;;;;;4392349;32;20008;-70
2022/08/20 05:54:02;;;;;;;6.72;5.10;;;21.10;99.90;;;;;;4400067;32;20009;-70
2022/08/20 05:56:31;;;;;;;5.80;5.15;;;21.10;99.90;;;;;;4396473;32;19991;-70
2022/08/20 05:59:01;;;;;;;8.52;5.28;;;20.90;99.90;;;;;;4401973;32;20016;-69
2022/08/20 06:01:28;;;;;;;6.20;5.10;;;20.90;99.90;;;;;;4406898;32;20006;-70
2022/08/20 06:06:39;;;;;;;8.57;5.10;;;20.90;99.90;;;;;;4394403;32;20024;-69
2022/08/20 06:09:06;;;;;;;5.65;4.72;;;21.00;99.90;;;;;;4398245;32;20126;-70
2022/08/20 06:11:35;;;;;;;6.20;4.87;;;20.70;99.90;;;;;;4399190;32;19958;-70
2022/08/20 06:14:02;;;;;;;6.90;5.25;;;20.70;99.90;;;;;;4397495;32;20114;-69
2022/08/20 06:16:29;;;;;;;6.37;4.97;;;20.80;99.90;;;;;;4398215;32;20002;-70
2022/08/20 06:18:56;;;;;;;8.27;5.32;;;20.70;99.90;;;;;;4400851;32;20032;-69
2022/08/20 06:21:23;;;;;;;6.97;4.87;;;20.70;99.90;;;;;;4387634;32;19976;-69
2022/08/20 06:23:50;;;;;;;7.78;5.40;;;20.70;99.90;;;;;;4405768;32;19966;-69
2022/08/20 06:26:16;;;;;;;7.00;5.90;;;20.80;99.90;;;;;;4393498;32;20059;-71
2022/08/20 06:28:44;;;;;;;6.93;6.10;;;20.60;99.90;;;;;;4402577;32;20139;-70
2022/08/20 06:31:11;;;;;;;7.93;6.10;;;20.60;99.90;;;;;;4397549;32;20087;-70
2022/08/20 06:33:38;;;;;;;8.70;7.25;;;20.60;99.90;;;;;;4400608;32;19963;-70
2022/08/20 06:36:05;;;;;;;9.32;7.60;;;20.50;99.90;;;;;;4399873;32;20009;-69
2022/08/20 06:38:32;;;;;;;8.40;7.07;;;20.30;99.90;;;;;;4402294;32;19968;-69
2022/08/20 06:40:59;;;;;;;9.65;7.55;;;20.20;99.90;;;;;;4391723;32;19974;-67
2022/08/20 06:43:26;;;;;;;9.98;8.32;;;20.30;99.90;;;;;;4400279;32;19959;-67
2022/08/20 06:45:56;;;;;;;12.77;7.72;;;20.30;99.90;;;;;;4394072;32;20007;-68
2022/08/20 06:48:24;;;;;;;10.13;7.80;;;20.30;99.90;;;;;;4399601;32;19948;-68
2022/08/20 06:50:52;;;;;;;9.20;7.85;;;20.50;99.90;;;;;;4398681;32;19970;-68
2022/08/20 06:53:20;;;;;;;9.15;8.18;;;20.50;99.90;;;;;;4396657;32;20102;-68
2022/08/20 06:55:50;;;;;;;11.32;7.87;;;20.40;99.90;;;;;;4402122;32;20056;-68
2022/08/20 06:58:17;;;;;;;10.82;8.00;;;20.50;99.90;;;;;;4395283;32;19992;-68
2022/08/20 07:00:45;;;;;;;9.82;7.87;;;20.40;99.90;;;;;;4398350;32;19965;-69
2022/08/20 07:03:14;;;;;;;10.02;7.68;;;20.30;99.90;;;;;;4402362;32;19996;-69
2022/08/20 07:05:42;;;;;;;11.70;8.38;;;20.00;99.90;;;;;;4396535;32;19979;-69
2022/08/20 07:08:10;;;;;;;10.38;7.68;;;20.00;99.90;;;;;;4394669;32;19979;-69
2022/08/20 07:10:37;;;;;;;10.10;7.62;;;19.70;99.90;;;;;;4395060;32;19965;-70
2022/08/20 07:13:05;;;;;;;11.15;7.78;;;19.80;99.90;;;;;;4406073;32;20110;-69
2022/08/20 07:15:32;;;;;;;10.82;7.55;;;19.70;99.90;;;;;;4398532;32;19975;-69
2022/08/20 07:18:02;;;;;;;11.12;8.07;;;19.80;99.90;;;;;;4401872;32;19974;-69
2022/08/20 07:20:32;;;;;;;10.05;7.62;;;19.70;99.90;;;;;;4393860;32;19961;-70
2022/08/20 07:23:01;;;;;;;9.55;7.47;;;19.80;99.90;;;;;;4398983;32;19996;-69
2022/08/20 07:25:29;;;;;;;9.18;7.72;;;19.90;99.90;;;;;;4402526;32;19975;-70
2022/08/20 07:28:01;;;;;;;11.48;7.87;;;19.80;99.90;;;;;;4395660;32;20004;-70
2022/08/20 07:33:15;;;;;;;9.80;7.95;;;20.00;99.90;;;;;;4395389;32;19995;-69
2022/08/20 07:35:47;;;;;;;8.50;7.37;;;19.70;99.90;;;;;;4392092;32;19968;-69
2022/08/20 07:38:23;;;;;;;9.02;7.22;;;20.00;99.90;;;;;;4397794;32;20045;-69
2022/08/20 07:40:51;;;;;;;9.48;6.95;;;20.00;99.90;;;;;;4399917;32;19984;-69
2022/08/20 07:43:18;;;;;;;9.82;7.32;;;20.20;99.90;;;;;;4400097;32;20110;-69
2022/08/20 07:45:45;;;;;;;8.68;6.72;;;20.30;99.90;;;;;;4390645;32;20012;-70
2022/08/20 07:48:14;;;;;;;9.88;7.32;;;20.50;99.90;;;;;;4388227;32;19989;-70
2022/08/20 07:50:42;;;;;;;8.27;7.05;;;20.70;99.90;;;;;;4388065;32;19972;-69
2022/08/20 07:53:10;;;;;;;17.45;8.13;;;20.60;99.90;;;;;;4390682;32;19986;-69
2022/08/20 07:55:40;;;;;;;15.77;8.57;;;20.40;99.90;;;;;;4390603;32;20029;-70
2022/08/20 07:58:09;;;;;;;10.65;8.23;;;20.20;99.90;;;;;;4396887;32;19958;-70
2022/08/20 08:00:36;;;;;;;11.52;8.10;;;19.80;99.90;;;;;;4401433;32;20157;-69
2022/08/20 08:03:03;;;;;;;10.63;8.32;;;19.90;99.90;;;;;;4393510;32;20002;-71
2022/08/20 08:05:30;;;;;;;9.68;7.55;;;19.80;99.90;;;;;;4399158;32;19979;-70
2022/08/20 08:07:58;;;;;;;9.82;7.82;;;20.00;99.90;;;;;;4401350;32;19959;-70
2022/08/20 08:10:26;;;;;;;11.23;7.47;;;19.90;99.90;;;;;;4396572;32;19987;-69
2022/08/20 08:12:54;;;;;;;9.48;7.75;;;20.00;99.90;;;;;;4403427;32;19991;-70
2022/08/20 08:15:26;;;;;;;9.90;7.68;;;19.90;99.90;;;;;;4396273;32;19988;-69
2022/08/20 08:17:54;;;;;;;;;;;20.00;99.90;;;;;;4397902;32;19988;-69
2022/08/20 08:20:22;;;;;;;10.68;7.60;;;20.10;99.90;;;;;;4390472;32;19905;-70
2022/08/20 08:22:49;;;;;;;9.80;7.32;;;20.10;99.90;;;;;;4390112;32;20013;-70
2022/08/20 08:25:17;;;;;;;9.48;7.07;;;20.00;99.90;;;;;;4399903;32;19986;-70
2022/08/20 08:27:47;;;;;;;8.65;7.10;;;20.00;99.90;;;;;;4396326;32;19989;-71
2022/08/20 08:30:15;;;;;;;8.30;6.55;;;20.10;99.90;;;;;;4393624;32;19987;-70
2022/08/20 08:33:26;;;;;;;8.35;7.10;;;20.10;99.90;;;;;;4394406;32;19993;-71
2022/08/20 08:35:31;;;;;;;9.93;6.37;;;20.40;99.90;;;;;;4392516;32;19968;-70
2022/08/20 08:38:01;;;;;;;11.18;7.47;;;20.00;99.90;;;;;;4390886;32;19964;-70
2022/08/20 08:40:30;;;;;;;8.27;7.05;;;19.90;99.90;;;;;;4388917;32;19957;-70
2022/08/20 08:42:58;;;;;;;8.15;6.20;;;20.00;99.90;;;;;;4383308;32;19963;-70
2022/08/20 08:45:32;;;;;;;9.43;6.53;;;20.30;99.90;;;;;;4403339;32;20041;-69
2022/08/20 08:47:58;;;;;;;9.55;6.45;;;20.50;99.90;;;;;;4391296;32;20026;-69
2022/08/20 08:50:27;;;;;;;8.52;6.78;;;20.40;99.90;;;;;;4389823;32;19964;-69
2022/08/20 08:52:59;;;;;;;8.60;5.85;;;20.60;99.90;;;;;;4392664;32;20025;-69
2022/08/20 08:55:29;;;;;;;7.70;6.30;;;20.40;99.90;;;;;;4401752;32;19970;-69
2022/08/20 08:57:59;;;;;;;9.27;5.87;;;20.50;99.90;;;;;;4392740;32;20154;-70
2022/08/20 09:00:27;;;;;;;8.93;6.35;;;20.60;99.90;;;;;;4388223;32;19978;-69
2022/08/20 09:02:58;;;;;;;9.30;6.60;;;20.70;99.90;;;;;;4393672;32;19969;-69
2022/08/20 09:05:30;;;;;;;7.40;6.22;;;20.80;99.90;;;;;;4390513;32;20143;-69
2022/08/20 09:07:59;;;;;;;8.48;6.43;;;20.50;99.90;;;;;;4396032;32;19975;-69
2022/08/20 09:10:25;;;;;;;9.48;5.90;;;20.20;99.90;;;;;;4399083;32;20011;-70
2022/08/20 09:12:53;;;;;;;8.52;5.62;;;20.20;99.90;;;;;;4391081;32;19957;-69
2022/08/20 09:15:21;;;;;;;8.05;5.20;;;20.60;99.90;;;;;;4397439;32;20137;-70
2022/08/20 09:17:47;;;;;;;7.32;5.70;;;20.60;99.90;;;;;;4390199;32;20007;-69
2022/08/20 09:20:14;;;;;;;7.97;5.12;;;20.40;99.90;;;;;;4399418;32;19991;-69
2022/08/20 09:22:41;;;;;;;6.43;5.35;;;20.80;99.90;;;;;;4390959;32;19978;-69
2022/08/20 09:25:08;;;;;;;5.25;4.20;;;20.50;99.90;;;;;;4390260;32;20000;-69
2022/08/20 09:27:35;;;;;;;5.78;4.25;;;20.70;99.90;;;;;;4400935;32;19991;-69
2022/08/20 09:30:03;;;;;;;5.40;3.80;;;21.00;99.90;;;;;;4393683;32;19963;-69
2022/08/20 09:32:30;;;;;;;5.00;4.05;;;20.90;99.90;;;;;;4390432;32;20131;-69
2022/08/20 09:34:58;;;;;;;6.32;4.07;;;21.30;99.90;;;;;;4395403;32;20042;-69
2022/08/20 09:37:27;;;;;;;6.43;3.70;;;21.60;99.90;;;;;;4389804;32;19971;-69
2022/08/20 09:39:53;;;;;;;9.23;4.62;;;21.50;99.90;;;;;;4395878;32;20013;-70
2022/08/20 09:42:23;;;;;;;6.37;3.45;;;21.40;99.90;;;;;;4389528;32;19955;-70
2022/08/20 09:44:50;;;;;;;5.05;3.75;;;21.70;99.90;;;;;;4377997;32;19961;-70
2022/08/20 09:47:18;;;;;;;5.82;3.87;;;21.90;99.90;;;;;;4396055;32;20109;-67
2022/08/20 09:49:46;;;;;;;5.03;3.35;;;22.10;99.90;;;;;;4390500;32;19996;-68
2022/08/20 09:52:20;;;;;;;5.55;3.37;;;21.80;99.90;;;;;;4402503;32;19994;-68
2022/08/20 09:54:47;;;;;;;5.35;3.60;;;21.70;99.90;;;;;;4397501;32;19981;-68
2022/08/20 09:57:15;;;;;;;5.43;3.45;;;21.80;99.90;;;;;;4394391;32;19955;-69
2022/08/20 09:59:42;;;;;;;4.43;3.10;;;21.60;99.90;;;;;;4401759;32;20025;-69
2022/08/20 10:02:09;;;;;;;4.60;2.60;;;23.40;99.90;;;;;;4400547;32;19998;-70
2022/08/20 10:04:37;;;;;;;3.33;2.20;;;25.30;99.90;;;;;;4404571;32;19985;-69
2022/08/20 10:07:07;;;;;;;3.53;2.00;;;27.80;99.90;;;;;;4406053;32;19988;-70
2022/08/20 10:09:34;;;;;;;2.10;1.80;;;28.10;99.90;;;;;;4400805;32;20000;-70
2022/08/20 10:12:01;;;;;;;4.15;1.98;;;27.70;99.90;;;;;;4403019;32;20027;-70
2022/08/20 10:14:27;;;;;;;2.10;1.67;;;26.90;99.90;;;;;;4397339;32;20002;-71
2022/08/20 10:16:56;;;;;;;1.98;1.77;;;26.20;99.90;;;;;;4406576;32;19991;-70
2022/08/20 10:19:23;;;;;;;2.80;1.87;;;24.90;99.90;;;;;;4403150;32;20000;-70
2022/08/20 10:21:52;;;;;;;3.17;2.25;;;23.80;99.90;;;;;;4396130;32;19989;-70
2022/08/20 10:24:19;;;;;;;2.95;2.03;;;23.20;99.90;;;;;;4392788;32;19974;-69
2022/08/20 10:26:46;;;;;;;2.80;2.20;;;22.40;99.90;;;;;;4392744;32;20013;-69
2022/08/20 10:29:13;;;;;;;4.55;3.35;;;21.70;99.90;;;;;;4391793;32;19987;-68
2022/08/20 10:31:40;;;;;;;3.80;2.85;;;21.70;99.90;;;;;;4392765;32;19966;-69
2022/08/20 10:34:06;;;;;;;3.95;3.17;;;21.20;99.90;;;;;;4405302;32;19976;-69
2022/08/20 10:36:33;;;;;;;4.62;3.17;;;21.20;99.90;;;;;;4398329;32;19954;-69
2022/08/20 10:39:01;;;;;;;4.62;2.37;;;21.20;99.90;;;;;;4399477;32;19992;-70
2022/08/20 10:41:28;;;;;;;3.62;2.92;;;21.40;99.90;;;;;;4402758;32;19982;-69
2022/08/20 10:43:55;;;;;;;4.00;2.75;;;21.10;99.90;;;;;;4399324;32;19997;-69
2022/08/20 10:46:21;;;;;;;4.10;2.40;;;21.70;99.90;;;;;;4397109;32;19997;-70
2022/08/20 10:48:48;;;;;;;3.33;2.10;;;22.20;99.90;;;;;;4401795;32;19991;-71
2022/08/20 10:51:15;;;;;;;3.62;1.90;;;23.00;99.90;;;;;;4396194;32;20013;-69
2022/08/20 10:53:41;;;;;;;3.62;2.00;;;23.90;99.90;;;;;;4401977;32;20025;-69
2022/08/20 10:56:09;;;;;;;2.95;2.17;;;23.70;99.90;;;;;;4398883;32;19997;-70
2022/08/20 10:58:36;;;;;;;3.92;2.33;;;25.00;99.90;;;;;;4400816;32;20012;-69
2022/08/20 11:01:03;;;;;;;3.00;2.03;;;23.20;99.90;;;;;;4403047;32;19961;-69
2022/08/20 11:03:30;;;;;;;3.05;2.42;;;23.10;99.90;;;;;;4401536;32;19990;-70
2022/08/20 11:05:56;;;;;;;3.62;2.17;;;23.20;99.90;;;;;;4401949;32;19974;-70
2022/08/20 11:08:23;;;;;;;3.28;2.40;;;22.20;99.90;;;;;;4401050;32;19963;-71
2022/08/20 11:10:51;;;;;;;3.20;2.28;;;22.80;99.90;;;;;;4403032;32;20043;-71
2022/08/20 11:13:19;;;;;;;4.53;2.10;;;23.50;99.90;;;;;;4404798;32;20100;-70
2022/08/20 11:15:46;;;;;;;4.62;2.10;;;23.60;99.90;;;;;;4395119;32;20019;-71
2022/08/20 11:18:13;;;;;;;2.47;1.75;;;23.80;99.90;;;;;;4404819;32;19966;-70
2022/08/20 11:20:40;;;;;;;2.28;1.90;;;23.60;99.90;;;;;;4404501;32;20138;-71
2022/08/20 11:23:07;;;;;;;1.83;1.50;;;24.10;99.90;;;;;;4400283;32;20147;-70
2022/08/20 11:25:33;;;;;;;3.10;2.03;;;24.50;99.90;;;;;;4393117;32;20048;-70
2022/08/20 11:28:00;;;;;;;2.30;1.70;;;24.00;99.90;;;;;;4387044;32;19957;-70
2022/08/20 11:30:30;;;;;;;3.37;1.80;;;24.00;99.90;;;;;;4394843;32;20017;-70
2022/08/20 11:32:58;;;;;;;3.00;2.08;;;24.30;99.90;;;;;;4398007;32;20006;-70
2022/08/20 11:35:25;;;;;;;3.45;2.00;;;24.60;99.90;;;;;;4398346;32;19984;-70
2022/08/20 11:37:54;;;;;;;3.90;1.77;;;25.20;99.90;;;;;;4400867;32;19994;-70
2022/08/20 11:40:21;;;;;;;4.10;2.42;;;25.30;99.90;;;;;;4392336;32;19992;-71
2022/08/20 11:42:47;;;;;;;1.87;1.40;;;26.80;99.90;;;;;;4403241;32;19993;-69
2022/08/20 11:45:15;;;;;;;2.58;1.62;;;26.90;99.90;;;;;;4390775;32;19956;-69
2022/08/20 11:47:43;;;;;;;2.90;1.80;;;27.70;98.90;;;;;;4381270;32;20035;-69
2022/08/20 11:50:12;;;;;;;3.17;1.92;;;25.40;99.90;;;;;;4405234;32;20018;-69
2022/08/20 11:52:39;;;;;;;2.78;1.87;;;25.80;99.90;;;;;;4395239;32;19991;-69
2022/08/20 11:55:08;;;;;;;1.80;1.60;;;26.20;99.90;;;;;;4392155;32;20011;-70
2022/08/20 11:57:36;;;;;;;3.42;1.90;;;24.80;99.90;;;;;;4400854;32;19961;-70
2022/08/20 12:00:08;;;;;;;2.58;1.60;;;25.30;99.90;;;;;;4378413;32;19960;-69
2022/08/20 12:02:35;;;;;;;;;;;25.10;99.90;;;;;;4392672;32;19970;-70
2022/08/20 12:05:03;;;;;;;3.78;1.92;;;24.40;99.90;;;;;;4394818;32;19917;-69
2022/08/20 12:07:30;;;;;;;3.37;2.10;;;24.40;99.90;;;;;;4386549;32;20006;-69
2022/08/20 12:09:57;;;;;;;3.85;1.70;;;25.10;99.90;;;;;;4403267;32;20150;-69
2022/08/20 12:12:24;;;;;;;3.20;1.62;;;25.60;99.90;;;;;;4395305;32;19999;-69
2022/08/20 12:14:51;;;;;;;1.90;1.00;;;26.20;99.90;;;;;;4399096;32;20025;-69
2022/08/20 12:17:22;;;;;;;3.17;1.10;;;26.20;99.40;;;;;;4396497;32;19998;-69
2022/08/20 12:19:50;;;;;;;2.05;1.10;;;25.70;98.80;;;;;;4398043;32;20106;-69
2022/08/20 12:22:18;;;;;;;3.45;1.20;;;25.70;98.70;;;;;;4398721;32;19979;-69
2022/08/20 12:24:45;;;;;;;1.37;1.23;;;25.60;98.10;;;;;;4391992;32;20107;-68
2022/08/20 12:27:14;;;;;;;1.52;1.23;;;25.50;98.80;;;;;;4398702;32;20137;-69
2022/08/20 12:29:42;;;;;;;2.92;1.80;;;25.70;99.90;;;;;;4389736;32;20121;-70
2022/08/20 12:32:08;;;;;;;1.77;1.25;;;25.70;99.80;;;;;;4400482;32;19960;-70
2022/08/20 12:34:37;;;;;;;1.52;1.37;;;26.10;99.90;;;;;;4395752;32;20003;-69
2022/08/20 12:37:07;;;;;;;1.80;1.17;;;26.70;99.90;;;;;;4391031;32;19988;-70
2022/08/20 12:39:38;;;;;;;2.83;1.48;;;27.00;99.30;;;;;;4400765;32;19996;-69
2022/08/20 12:42:05;;;;;;;3.00;1.05;;;27.60;95.10;;;;;;4394101;32;19975;-69
2022/08/20 12:44:32;;;;;;;2.58;1.62;;;27.50;95.70;;;;;;4392987;32;19995;-69
2022/08/20 12:47:08;;;;;;;1.17;0.98;;;28.20;94.20;;;;;;4397444;32;19962;-69
2022/08/20 12:49:35;;;;;;;2.08;1.27;;;27.20;95.80;;;;;;4385541;32;20004;-69
2022/08/20 12:52:02;;;;;;;2.75;1.25;;;27.40;96.60;;;;;;4393390;32;19989;-69
2022/08/20 12:54:29;;;;;;;1.35;1.10;;;27.10;95.30;;;;;;4390861;32;19998;-70
2022/08/20 12:56:57;;;;;;;2.53;1.62;;;27.10;94.10;;;;;;4386554;32;20012;-70